Impacts METAR Board INFO
IDs:

KEWR - Newark Intl, NJ, US

Updated at: 0317 UTC 18 Dec 2017
Potential Impact None Slight Moderate High
Time17/15Z 17/16Z 17/17Z 17/18Z 17/19Z 17/20Z 17/21Z 17/22Z 17/23Z 18/00Z 18/01Z 18/02Z 18/03Z
VIS10 10 10 10 10 10 10 10 10 10 10 10 10
CIG50 49 50 100 100 100 210 200 250 250 22 18 17
CoverOVCOVCOVCBKNBKNOVCBKNBKNBKNBKNBKNOVCOVC
FltCatVFRVFRVFRVFRVFRVFRVFRVFRVFRVFRMVFRMVFRMVFR
WX--------------------------
WDir0400060507070003030100
WSpd0 4 0 0 4 4 3 3 0 0 4 6 4
WGst-- -- -- -- -- -- -- -- -- -- -- -- --
Raw hourly METARs
KEWR 171451Z 00000KT 10SM BKN050 BKN070 OVC100 01/M06 A3031 RMK AO2 SLP262 T00111056 53010
KEWR 171551Z 04004KT 10SM BKN049 BKN070 OVC100 02/M05 A3029 RMK AO2 SLP257 T00171050
KEWR 171651Z 00000KT 10SM BKN050 BKN070 OVC100 02/M05 A3029 RMK AO2 SLP256 T00171050
KEWR 171751Z 00000KT 10SM FEW049 BKN100 BKN220 03/M04 A3026 RMK AO2 SLP245 T00331044 10033 20000 58017
KEWR 171851Z 06004KT 10SM SCT049 BKN100 BKN210 03/M04 A3024 RMK AO2 SLP239 T00281044
KEWR 171951Z 05004KT 10SM FEW049 BKN100 OVC210 03/M04 A3024 RMK AO2 SLP238 T00281044
KEWR 172051Z 07003KT 10SM FEW049 SCT100 BKN210 BKN260 03/M04 A3024 RMK AO2 SLP239 T00281039 55007
KEWR 172151Z 07003KT 10SM FEW049 SCT100 BKN200 BKN250 02/M04 A3024 RMK AO2 SLP237 T00221039
KEWR 172251Z 00000KT 10SM FEW050 SCT140 BKN250 03/M03 A3025 RMK AO2 SLP243 T00331033
KEWR 172351Z 00000KT 10SM FEW022 SCT120 BKN250 03/M03 A3028 RMK AO2 PRESRR SLP253 T00331028 10033 20022 53014
KEWR 180101Z 03004KT 10SM BKN022 BKN120 BKN250 02/M03 A3026 RMK AO2 T00221028
KEWR 180151Z 03006KT 10SM OVC018 02/M02 A3025 RMK SLP241 T00221022
KEWR 180251Z 10004KT 10SM OVC017 03/M02 A3023 RMK AO2 SLP237 T00281022 56016